Portada
METAR-TAF:

METAR-TAF

Aeroports :

Aoba Island, Vanuatu

latitud: 15-18-24S, longitud: 167-58-02E, altitud: 51 m

Observació

L'informe es va fer fa 1 hora i 58 minuts, a les 06:00 UTC
Vent 4 kt del Nord-Est
Temperatura 28°C
Humitat 84%
Pressió 1006 hPa
Visibilitat 10 km o més
Escasses núvols a una alçada de 2000 ft
Cel cobert a una alçada de 4000 ft

METAR: NVSG 310600Z 05004KT 9999 FEW020 OVC040 28/25 Q1006

Hora: 18:58 (07:58 UTC)

Pronòstic

L'informe es va fer fa 2 hores i 58 minuts, a les 05:00 UTC
Pronòstic vàlid del 31 a les 06 UTC al 01 a les 06 UTC
Vent 4 kt amb direcció variable
Visibilitat: 8000 m
Cel ennuvolat a una alçada de 2000 ft
Cel cobert a una alçada de 4000 ft
Escasses núvols a una alçada de 800 ft
Cel ennuvolat a una alçada de 1600 ft
Escasses núvols a una alçada de 2000 ft, Cumulonimbus.
tempesta, pluja

TAF: NVSG 310500Z 3106/0106 VRB04KT 9999 BKN020 OVC040 INTER 3106/3112 8000 TSRA FEW008 BKN016 FEW020CB

Observacions i pronòstics meteorològics de més de 4000 aeroports (METAR i TAF).

Les estacions disponibles són els punts grocs i vermells al mapa.

Posi el ratolí al punt desitjat per veure el nom de l'estació.

Feu clic per veure les observacions i els pronòstics meteorològics.

Per canviar el mapa: feu clic els botons verds amb una creu de color negre per apropar; al botó verd amb un guió per allunyar la imatge; o en les fletxes verdes per a mapes adjacents.


METAR-TAF: